AQQ10 IFIS: Internet Flight Information System
logo dgac
Miércoles 28 de Febrero del 2024
Buscar por aerodromo o helipuerto
Ingrese nombre de aeródromo, localidad o designador OACI:
METAR del 28-02-2024 a las 00:00 UTC
Para mayor información visite www.meteochile.gob.cl
METAR SCCI 280000Z 27010KT 9999 FEW030 SCT150 13/09 Q0998 NOSIG
Viento: dirección 270 grados, velocidad 10 nudos
Visibilidad: 10 km o más
Nubes: Escasa nubosidad a 3000 pies sobre el nivel del aeródromo
Nubes: Nubosidad parcial a 15000 pies sobre el nivel del aeródromo
Temperatura: 13 °C
Rocío: 9 °C
Humedad_relativa: 77%
Presión: 998 hPa
No se esperan cambios significativos en las próximas 2 horas
METAR del 27-02-2024 a las 23:00 UTC
Para mayor información visite www.meteochile.gob.cl
METAR SCCI 272300Z 28011KT 9999 FEW030 BKN130 13/10 Q0997 NOSIG
Viento: dirección 280 grados, velocidad 11 nudos
Visibilidad: 10 km o más
Nubes: Escasa nubosidad a 3000 pies sobre el nivel del aeródromo
Nubes: Nublado a 13000 pies sobre el nivel del aeródromo
Temperatura: 13 °C
Rocío: 10 °C
Humedad_relativa: 82%
Presión: 997 hPa
No se esperan cambios significativos en las próximas 2 horas
METAR del 27-02-2024 a las 22:00 UTC
Para mayor información visite www.meteochile.gob.cl
METAR SCCI 272200Z 29017KT 9999 SCT028 BKN150 15/10 Q0996 NOSIG
Viento: dirección 290 grados, velocidad 17 nudos
Visibilidad: 10 km o más
Nubes: Nubosidad parcial a 2800 pies sobre el nivel del aeródromo
Nubes: Nublado a 15000 pies sobre el nivel del aeródromo
Temperatura: 15 °C
Rocío: 10 °C
Humedad_relativa: 72%
Presión: 996 hPa
No se esperan cambios significativos en las próximas 2 horas
METAR del 27-02-2024 a las 21:00 UTC
Para mayor información visite www.meteochile.gob.cl
METAR SCCI 272100Z 31009KT 9999 SCT030 BKN074 16/13 Q0995 NOSIG
Viento: dirección 310 grados, velocidad 9 nudos
Visibilidad: 10 km o más
Nubes: Nubosidad parcial a 3000 pies sobre el nivel del aeródromo
Nubes: Nublado a 7400 pies sobre el nivel del aeródromo
Temperatura: 16 °C
Rocío: 13 °C
Humedad_relativa: 82%
Presión: 995 hPa
No se esperan cambios significativos en las próximas 2 horas
METAR del 27-02-2024 a las 20:00 UTC
Para mayor información visite www.meteochile.gob.cl
METAR SCCI 272000Z 07005KT 9999 SCT049 BKN066 OVC130 13/11 Q0996 NOSIG
Viento: dirección 070 grados, velocidad 5 nudos
Visibilidad: 10 km o más
Nubes: Nubosidad parcial a 4900 pies sobre el nivel del aeródromo
Nubes: Nublado a 6600 pies sobre el nivel del aeródromo
Nubes: Cubierto a 13000 pies sobre el nivel del aeródromo
Temperatura: 13 °C
Rocío: 11 °C
Humedad_relativa: 88%
Presión: 996 hPa
No se esperan cambios significativos en las próximas 2 horas
METAR del 27-02-2024 a las 19:00 UTC
Para mayor información visite www.meteochile.gob.cl
METAR SCCI 271900Z 06008KT 9999 FEW020 SCT070 BKN130 12/11 Q0996 NOSIG
Viento: dirección 060 grados, velocidad 8 nudos
Visibilidad: 10 km o más
Nubes: Escasa nubosidad a 2000 pies sobre el nivel del aeródromo
Nubes: Nubosidad parcial a 7000 pies sobre el nivel del aeródromo
Nubes: Nublado a 13000 pies sobre el nivel del aeródromo
Temperatura: 12 °C
Rocío: 11 °C
Humedad_relativa: 94%
Presión: 996 hPa
No se esperan cambios significativos en las próximas 2 horas
METAR del 27-02-2024 a las 18:00 UTC
Para mayor información visite www.meteochile.gob.cl
METAR SCCI 271800Z 07010KT 9999 FEW014 SCT020 BKN082 12/11 Q0996 NOSIG
Viento: dirección 070 grados, velocidad 10 nudos
Visibilidad: 10 km o más
Nubes: Escasa nubosidad a 1400 pies sobre el nivel del aeródromo
Nubes: Nubosidad parcial a 2000 pies sobre el nivel del aeródromo
Nubes: Nublado a 8200 pies sobre el nivel del aeródromo
Temperatura: 12 °C
Rocío: 11 °C
Humedad_relativa: 94%
Presión: 996 hPa
No se esperan cambios significativos en las próximas 2 horas
METAR del 27-02-2024 a las 17:00 UTC
Para mayor información visite www.meteochile.gob.cl
METAR SCCI 271700Z 07011KT 9999 -RA SCT023 OVC075 12/11 Q0997 RERA NOSIG
Viento: dirección 070 grados, velocidad 11 nudos
Visibilidad: 10 km o más
Débil Lluvia
Nubes: Nubosidad parcial a 2300 pies sobre el nivel del aeródromo
Nubes: Cubierto a 7500 pies sobre el nivel del aeródromo
Temperatura: 12 °C
Rocío: 11 °C
Humedad_relativa: 94%
Presión: 997 hPa
Se observó recientemente Lluvia
No se esperan cambios significativos en las próximas 2 horas
METAR del 27-02-2024 a las 16:00 UTC
Para mayor información visite www.meteochile.gob.cl
METAR SCCI 271600Z 07010KT 5000 -RA SCT015 OVC078 11/10 Q0998 NOSIG
Viento: dirección 070 grados, velocidad 10 nudos
Visibilidad: 5000 metros
Débil Lluvia
Nubes: Nubosidad parcial a 1500 pies sobre el nivel del aeródromo
Nubes: Cubierto a 7800 pies sobre el nivel del aeródromo
Temperatura: 11 °C
Rocío: 10 °C
Humedad_relativa: 94%
Presión: 998 hPa
No se esperan cambios significativos en las próximas 2 horas
METAR del 27-02-2024 a las 15:00 UTC
Para mayor información visite www.meteochile.gob.cl
METAR SCCI 271500Z 08013KT 8000 -RA FEW007 OVC068 11/10 Q0998 RERA NOSIG
Viento: dirección 080 grados, velocidad 13 nudos
Visibilidad: 8000 metros
Débil Lluvia
Nubes: Escasa nubosidad a 700 pies sobre el nivel del aeródromo
Nubes: Cubierto a 6800 pies sobre el nivel del aeródromo
Temperatura: 11 °C
Rocío: 10 °C
Humedad_relativa: 94%
Presión: 998 hPa
Se observó recientemente Lluvia
No se esperan cambios significativos en las próximas 2 horas